Time;durP1;ratioP1;P1;durP2;ratioP2;P2;SDS_P1;SDS_P2;PMS_P1;PMS_P2;Temp;Humidity;BMP_temperature;BMP_pressure;BME280_temperature;BME280_humidity;BME280_pressure;Samples;Min_cycle;Max_cycle;Signal;HPM_P1;HPM_P2
2022/02/17 11:43:10;;;;;;;;;;;10.10;62.50;;;;;;5070431;28;20387;-48
2022/02/17 11:45:36;;;;;;;12.45;2.20;;;10.00;62.80;;;;;;5050406;28;20359;-46
2022/02/17 11:48:03;;;;;;;12.85;1.83;;;10.00;63.10;;;;;;5050142;28;20037;-47
2022/02/17 11:50:31;;;;;;;9.13;2.00;;;10.00;62.40;;;;;;5050040;28;20049;-47
2022/02/17 11:52:57;;;;;;;8.82;1.83;;;10.10;62.40;;;;;;5050032;28;20045;-48
2022/02/17 11:55:24;;;;;;;10.23;2.35;;;10.10;61.20;;;;;;5050102;28;20422;-51
2022/02/17 11:57:51;;;;;;;8.10;1.73;;;10.20;60.10;;;;;;5050086;28;20372;-46
2022/02/17 12:00:18;;;;;;;11.40;2.00;;;10.20;60.30;;;;;;5050358;28;20116;-49
2022/02/17 12:02:46;;;;;;;7.40;1.60;;;10.30;61.40;;;;;;5049736;28;20505;-44
2022/02/17 12:05:13;;;;;;;9.00;1.88;;;10.30;62.00;;;;;;5051594;28;20060;-48
2022/02/17 12:07:41;;;;;;;8.02;1.92;;;10.30;61.30;;;;;;5048287;28;20038;-47
2022/02/17 12:10:11;;;;;;;12.52;2.30;;;10.40;61.70;;;;;;5048739;28;20476;-49
2022/02/17 12:12:38;;;;;;;9.02;2.13;;;10.40;61.90;;;;;;5051489;28;20045;-47
2022/02/17 12:15:05;;;;;;;11.30;2.00;;;10.50;61.90;;;;;;5049114;28;20442;-43
2022/02/17 12:17:32;;;;;;;8.35;2.22;;;10.50;59.70;;;;;;5049232;28;20476;-45
2022/02/17 12:20:00;;;;;;;9.02;1.88;;;10.60;61.50;;;;;;5049092;28;20537;-48
2022/02/17 12:22:26;;;;;;;9.63;2.17;;;10.60;58.60;;;;;;5048588;28;20068;-45
2022/02/17 12:24:53;;;;;;;12.90;2.70;;;10.70;59.20;;;;;;5049259;28;20430;-44
2022/02/17 12:27:20;;;;;;;11.25;3.42;;;10.80;58.30;;;;;;5049370;28;20045;-47
2022/02/17 12:29:47;;;;;;;10.82;2.80;;;10.80;57.80;;;;;;5052793;28;20064;-46
2022/02/17 12:32:13;;;;;;;7.90;2.72;;;10.90;56.90;;;;;;5048834;28;20045;-51
2022/02/17 12:34:40;;;;;;;9.73;2.58;;;10.90;57.90;;;;;;5048784;28;20045;-49
2022/02/17 12:37:07;;;;;;;12.55;2.67;;;11.00;57.10;;;;;;5048025;28;20052;-53
2022/02/17 12:39:34;;;;;;;6.45;1.92;;;11.00;58.30;;;;;;5048493;28;20049;-44
2022/02/17 12:42:00;;;;;;;12.98;1.83;;;11.10;56.30;;;;;;5051261;28;20057;-45
2022/02/17 12:44:29;;;;;;;14.35;3.00;;;11.10;57.50;;;;;;5049013;28;20518;-44
2022/02/17 12:46:58;;;;;;;11.88;2.42;;;11.20;57.60;;;;;;5049033;28;20451;-47
2022/02/17 12:49:25;;;;;;;11.18;2.22;;;11.30;59.50;;;;;;5050505;28;20408;-45
2022/02/17 12:51:52;;;;;;;12.52;2.17;;;11.30;55.90;;;;;;5048628;28;20041;-45
2022/02/17 12:54:19;;;;;;;9.25;2.13;;;11.30;55.30;;;;;;5036498;28;20041;-47
2022/02/17 12:56:47;;;;;;;9.80;2.33;;;11.40;55.20;;;;;;5036972;28;20049;-48
2022/02/17 12:59:13;;;;;;;10.15;2.47;;;11.40;54.40;;;;;;5035740;28;20077;-49
2022/02/17 13:01:41;;;;;;;9.45;2.20;;;11.50;53.70;;;;;;5033171;28;20045;-45
2022/02/17 13:04:08;;;;;;;9.57;1.98;;;11.40;54.30;;;;;;5033635;28;20100;-46
2022/02/17 13:06:35;;;;;;;12.32;2.63;;;11.40;55.80;;;;;;5035242;28;20044;-46
2022/02/17 13:09:01;;;;;;;6.95;2.30;;;11.50;56.80;;;;;;5035230;28;20037;-45
2022/02/17 13:11:28;;;;;;;11.20;2.08;;;11.40;55.10;;;;;;5035163;28;20456;-47
2022/02/17 13:13:55;;;;;;;8.70;2.10;;;11.40;56.00;;;;;;5035221;28;20046;-47
2022/02/17 13:16:22;;;;;;;12.45;2.78;;;11.40;56.20;;;;;;5035062;28;20491;-48
2022/02/17 13:18:48;;;;;;;7.88;1.95;;;11.40;57.50;;;;;;5037279;28;20041;-47
2022/02/17 13:21:16;;;;;;;8.77;1.80;;;11.40;55.90;;;;;;5034920;28;20041;-47
2022/02/17 13:23:44;;;;;;;12.45;2.60;;;11.50;57.00;;;;;;5035284;28;20424;-49
2022/02/17 13:26:12;;;;;;;11.05;2.20;;;11.40;55.30;;;;;;5035141;28;20484;-51
2022/02/17 13:28:39;;;;;;;10.20;2.50;;;11.30;55.70;;;;;;5037780;28;20072;-46
2022/02/17 13:31:07;;;;;;;7.68;2.30;;;11.30;56.10;;;;;;5034859;28;20443;-49
2022/02/17 13:33:33;;;;;;;8.52;2.40;;;11.40;56.90;;;;;;5034805;28;20046;-45
2022/02/17 13:36:02;;;;;;;11.90;2.63;;;11.40;58.00;;;;;;5037494;28;20041;-50
2022/02/17 13:38:28;;;;;;;9.98;2.78;;;11.40;59.30;;;;;;5034678;28;20042;-48
2022/02/17 13:40:56;;;;;;;13.43;2.80;;;11.40;59.80;;;;;;5036427;28;20033;-49
2022/02/17 13:43:23;;;;;;;15.35;2.67;;;11.50;60.90;;;;;;5034615;28;20056;-47
2022/02/17 13:45:50;;;;;;;10.57;2.20;;;11.60;61.50;;;;;;5034562;28;20046;-54
2022/02/17 13:48:19;;;;;;;8.82;2.10;;;11.70;59.70;;;;;;5034650;28;20041;-49
2022/02/17 13:50:46;;;;;;;12.00;2.15;;;11.70;58.90;;;;;;5034433;28;20046;-50
2022/02/17 13:53:14;;;;;;;12.23;2.28;;;11.70;59.10;;;;;;5033907;28;20488;-51
2022/02/17 13:55:41;;;;;;;10.35;2.13;;;11.80;57.90;;;;;;5034287;28;20049;-51
2022/02/17 13:58:08;;;;;;;7.35;1.95;;;11.70;57.80;;;;;;5034301;28;20045;-46
2022/02/17 14:00:37;;;;;;;8.90;1.98;;;11.70;56.40;;;;;;5034110;28;20052;-49
2022/02/17 14:03:05;;;;;;;9.18;1.83;;;11.70;56.70;;;;;;5034097;28;20077;-47
2022/02/17 14:05:33;;;;;;;12.27;4.07;;;11.70;57.30;;;;;;5033330;28;20591;-52
2022/02/17 14:08:00;;;;;;;7.20;2.20;;;11.80;58.30;;;;;;5034476;28;20259;-45
2022/02/17 14:10:28;;;;;;;14.95;2.55;;;11.80;57.70;;;;;;5035273;28;20080;-51
2022/02/17 14:12:55;;;;;;;10.77;3.15;;;11.80;58.60;;;;;;5037587;28;20056;-50
2022/02/17 14:15:22;;;;;;;13.10;2.33;;;11.90;60.20;;;;;;5034216;28;20045;-50
2022/02/17 14:17:48;;;;;;;10.23;2.50;;;11.90;59.60;;;;;;5034348;28;20392;-50
2022/02/17 14:20:16;;;;;;;14.27;3.60;;;11.90;60.30;;;;;;5033843;28;20461;-47
2022/02/17 14:22:43;;;;;;;10.77;2.67;;;11.90;59.90;;;;;;5033794;28;20099;-47
2022/02/17 14:25:10;;;;;;;7.78;2.67;;;11.90;59.40;;;;;;5033743;28;20041;-44
2022/02/17 14:27:38;;;;;;;12.80;2.40;;;11.90;57.60;;;;;;5034168;28;20045;-49
2022/02/17 14:30:05;;;;;;;8.80;2.20;;;11.80;58.00;;;;;;5032262;28;20153;-48
2022/02/17 14:32:31;;;;;;;14.68;2.75;;;11.80;58.20;;;;;;5033486;28;20052;-45
2022/02/17 14:35:12;;;;;;;13.05;2.60;;;11.80;57.50;;;;;;5033720;28;20047;-47
2022/02/17 14:37:43;;;;;;;14.85;2.80;;;11.80;59.20;;;;;;5033946;28;20099;-49
2022/02/17 14:40:11;;;;;;;8.20;2.03;;;11.70;57.70;;;;;;5033385;28;20042;-52
2022/02/17 14:42:38;;;;;;;9.60;2.45;;;11.70;58.50;;;;;;5033124;28;20075;-46
2022/02/17 14:45:04;;;;;;;15.25;2.55;;;11.70;59.20;;;;;;5033270;28;20050;-49
2022/02/17 14:47:34;;;;;;;7.03;2.25;;;11.60;58.50;;;;;;5032239;28;20038;-47
2022/02/17 14:50:00;;;;;;;10.73;2.20;;;11.60;59.20;;;;;;5033451;28;20050;-48
2022/02/17 14:52:27;;;;;;;13.20;3.22;;;11.40;62.30;;;;;;5032883;28;20093;-47
2022/02/17 14:54:55;;;;;;;10.65;2.15;;;11.20;66.80;;;;;;5033045;28;20045;-48
2022/02/17 14:57:21;;;;;;;15.48;2.40;;;11.00;68.30;;;;;;5033298;28;20129;-50
2022/02/17 14:59:49;;;;;;;13.95;2.60;;;10.90;70.80;;;;;;5033101;28;20045;-47
2022/02/17 15:02:16;;;;;;;12.05;2.35;;;10.70;70.90;;;;;;5031409;28;20041;-49
2022/02/17 15:04:42;;;;;;;8.57;2.13;;;10.60;70.90;;;;;;5037931;28;20034;-52
2022/02/17 15:07:09;;;;;;;11.77;2.50;;;10.60;72.10;;;;;;5032725;28;20127;-49
2022/02/17 15:09:36;;;;;;;14.95;2.60;;;10.50;72.20;;;;;;5033332;28;20419;-46
2022/02/17 15:12:03;;;;;;;14.30;2.63;;;10.50;72.40;;;;;;5035344;28;20041;-46
2022/02/17 15:14:29;;;;;;;14.63;2.47;;;10.50;72.50;;;;;;5032830;28;20439;-44
2022/02/17 15:16:58;;;;;;;14.45;3.17;;;10.50;72.20;;;;;;5032538;28;20041;-50
2022/02/17 15:20:12;;;;;;;11.15;2.63;;;10.40;72.50;;;;;;5032775;28;20052;-47
2022/02/17 15:22:11;;;;;;;15.07;2.85;;;10.40;72.60;;;;;;5031731;28;20049;-47
2022/02/17 15:24:38;;;;;;;13.05;3.00;;;10.40;73.40;;;;;;5038100;28;20093;-50
2022/02/17 15:27:06;;;;;;;17.02;3.47;;;10.40;73.40;;;;;;5032986;28;20065;-46
2022/02/17 15:29:33;;;;;;;15.60;2.90;;;10.30;73.50;;;;;;5032640;28;20037;-47
2022/02/17 15:32:00;;;;;;;12.68;2.67;;;10.30;74.10;;;;;;5033512;28;20045;-45
2022/02/17 15:34:26;;;;;;;15.68;3.10;;;10.30;74.30;;;;;;5032827;28;20103;-48
2022/02/17 15:36:53;;;;;;;12.35;2.53;;;10.30;74.90;;;;;;5033008;28;20395;-49
2022/02/17 15:39:20;;;;;;;12.77;2.85;;;10.30;75.10;;;;;;5032753;28;20049;-48
2022/02/17 15:41:48;;;;;;;12.90;2.67;;;10.30;75.60;;;;;;5032423;28;20058;-47
2022/02/17 15:44:15;;;;;;;13.30;2.75;;;10.30;76.20;;;;;;5032448;28;20065;-49
2022/02/17 15:46:43;;;;;;;11.50;2.60;;;10.30;76.80;;;;;;5032865;28;20454;-48
2022/02/17 15:49:11;;;;;;;15.85;2.78;;;10.30;77.00;;;;;;5032654;28;20120;-46
2022/02/17 15:51:40;;;;;;;11.85;2.60;;;10.40;77.60;;;;;;5032794;28;20099;-50
2022/02/17 15:54:07;;;;;;;14.27;2.78;;;10.30;77.40;;;;;;5034359;28;20072;-51
2022/02/17 15:56:33;;;;;;;8.93;2.50;;;10.40;77.50;;;;;;5032466;28;20045;-44
2022/02/17 15:59:02;;;;;;;10.52;2.72;;;10.40;76.80;;;;;;5032368;28;20439;-43
2022/02/17 16:01:29;;;;;;;11.43;2.40;;;10.40;77.10;;;;;;5032611;28;20358;-49
2022/02/17 16:04:15;;;;;;;12.15;2.88;;;10.40;77.20;;;;;;5032390;28;20053;-50
2022/02/17 16:06:42;;;;;;;9.95;2.70;;;10.30;77.00;;;;;;5032655;28;20076;-52
2022/02/17 16:09:09;;;;;;;12.30;2.30;;;10.30;77.20;;;;;;5032312;28;20046;-48
2022/02/17 16:11:36;;;;;;;15.85;2.88;;;10.30;77.10;;;;;;5032112;28;20092;-48
2022/02/17 16:14:03;;;;;;;12.73;2.72;;;10.30;76.70;;;;;;5031230;28;20060;-49
2022/02/17 16:16:29;;;;;;;11.32;2.20;;;10.40;77.10;;;;;;5032363;28;20584;-47
2022/02/17 16:18:56;;;;;;;10.27;1.95;;;10.30;77.20;;;;;;5032331;28;20099;-50
2022/02/17 16:21:27;;;;;;;9.88;2.40;;;10.30;77.10;;;;;;5032423;28;20172;-48
2022/02/17 16:23:53;;;;;;;11.23;1.95;;;10.30;77.40;;;;;;5032701;28;20044;-47
2022/02/17 16:26:20;;;;;;;13.93;1.77;;;10.40;76.30;;;;;;5029746;28;20038;-53
2022/02/17 16:28:48;;;;;;;9.45;1.90;;;10.40;75.60;;;;;;5031200;28;20033;-45
2022/02/17 16:31:14;;;;;;;8.63;2.22;;;10.40;75.30;;;;;;5037512;28;20041;-50
2022/02/17 16:33:41;;;;;;;9.38;2.22;;;10.40;75.40;;;;;;5035956;28;20490;-47
2022/02/17 16:36:08;;;;;;;9.10;1.80;;;10.40;75.40;;;;;;5034205;28;20064;-48
2022/02/17 16:38:36;;;;;;;10.93;1.90;;;10.40;75.20;;;;;;5035621;28;20045;-50
2022/02/17 16:41:03;;;;;;;9.10;2.03;;;10.40;74.50;;;;;;5035619;28;20092;-49
2022/02/17 16:43:30;;;;;;;13.38;2.20;;;10.40;75.10;;;;;;5035910;28;20037;-48
2022/02/17 16:45:57;;;;;;;12.35;2.28;;;10.40;73.70;;;;;;5035605;28;20041;-47
2022/02/17 16:48:23;;;;;;;11.68;1.65;;;10.40;74.00;;;;;;5035824;28;20088;-47
2022/02/17 16:50:51;;;;;;;9.93;2.25;;;10.40;73.90;;;;;;5035619;28;20042;-48
2022/02/17 16:53:17;;;;;;;8.45;1.90;;;10.40;74.40;;;;;;5035341;28;20072;-49
2022/02/17 16:55:44;;;;;;;10.98;2.38;;;10.40;73.70;;;;;;5035419;28;20546;-50
2022/02/17 16:58:11;;;;;;;10.77;2.00;;;10.30;73.40;;;;;;5035749;28;20495;-50
2022/02/17 17:00:38;;;;;;;11.30;2.15;;;10.30;73.30;;;;;;5035482;28;20403;-49
2022/02/17 17:03:05;;;;;;;11.20;2.72;;;10.30;74.60;;;;;;5034928;28;20069;-49
2022/02/17 17:05:32;;;;;;;8.98;2.33;;;10.20;75.40;;;;;;5035196;28;20049;-49
2022/02/17 17:07:59;;;;;;;12.23;2.33;;;10.20;74.80;;;;;;5035245;28;20037;-46
2022/02/17 17:10:26;;;;;;;9.73;1.92;;;10.20;75.60;;;;;;5035399;28;20033;-46
2022/02/17 17:12:52;;;;;;;9.90;2.53;;;10.20;75.90;;;;;;5035276;28;20049;-51
2022/02/17 17:15:19;;;;;;;11.52;2.60;;;10.20;75.40;;;;;;5035117;28;20049;-50
2022/02/17 17:17:46;;;;;;;10.88;2.25;;;10.20;74.60;;;;;;5035034;28;20496;-46
2022/02/17 17:20:13;;;;;;;12.43;2.33;;;10.10;74.00;;;;;;5031095;28;20404;-48
2022/02/17 17:22:39;;;;;;;12.07;2.00;;;10.10;73.90;;;;;;5031770;28;20045;-50
2022/02/17 17:25:06;;;;;;;11.07;2.30;;;10.10;73.80;;;;;;5036181;28;20045;-48
2022/02/17 17:27:33;;;;;;;10.38;2.38;;;10.10;73.60;;;;;;5035014;28;20423;-47
2022/02/17 17:30:00;;;;;;;13.43;2.85;;;10.10;73.60;;;;;;5034826;28;20045;-47
2022/02/17 17:32:27;;;;;;;8.13;2.22;;;10.20;72.80;;;;;;5031431;28;20354;-51
2022/02/17 17:34:54;;;;;;;11.02;2.13;;;10.10;73.30;;;;;;5034283;28;20451;-46
2022/02/17 17:37:22;;;;;;;15.77;2.88;;;10.10;73.20;;;;;;5034891;28;20064;-46
2022/02/17 17:39:49;;;;;;;21.00;3.17;;;10.10;76.10;;;;;;5034624;28;20505;-50
2022/02/17 17:42:15;;;;;;;11.35;2.38;;;9.90;76.60;;;;;;5031542;28;20045;-47
2022/02/17 17:47:28;;;;;;;20.02;3.22;;;9.70;76.50;;;;;;5031806;28;20155;-50
2022/02/17 17:49:54;;;;;;;16.50;2.95;;;9.70;76.70;;;;;;5027738;28;20041;-48
2022/02/17 17:52:21;;;;;;;17.85;3.10;;;9.60;76.90;;;;;;5030782;28;20046;-48
2022/02/17 17:54:51;;;;;;;13.20;3.22;;;9.60;76.30;;;;;;5031780;28;20041;-48
2022/02/17 17:57:18;;;;;;;18.02;3.55;;;9.60;76.50;;;;;;5029998;28;20053;-51
2022/02/17 17:59:46;;;;;;;16.50;3.42;;;9.60;76.20;;;;;;5029990;28;20107;-49
2022/02/17 18:02:13;;;;;;;17.50;3.20;;;9.60;76.40;;;;;;5034112;28;20041;-51
2022/02/17 18:04:40;;;;;;;15.55;3.58;;;9.60;76.40;;;;;;5032607;28;20095;-47
2022/02/17 18:07:06;;;;;;;14.70;2.72;;;9.60;76.30;;;;;;5033906;28;20042;-51
2022/02/17 18:09:33;;;;;;;20.23;3.17;;;9.60;76.40;;;;;;5034031;28;20041;-43
2022/02/17 18:12:00;;;;;;;14.90;2.97;;;9.50;76.60;;;;;;5033975;28;20044;-50
2022/02/17 18:14:27;;;;;;;16.05;3.35;;;9.50;76.80;;;;;;5035282;28;20379;-48
2022/02/17 18:16:54;;;;;;;18.25;3.28;;;9.50;77.30;;;;;;5033733;28;20051;-49
2022/02/17 18:19:20;;;;;;;21.05;3.95;;;9.50;77.40;;;;;;5036190;28;20095;-45
2022/02/17 18:21:47;;;;;;;17.50;4.00;;;9.50;77.60;;;;;;5033163;28;20361;-46
2022/02/17 18:24:14;;;;;;;19.38;3.72;;;9.40;77.70;;;;;;5033938;28;20041;-48
2022/02/17 18:26:51;;;;;;;15.52;3.47;;;9.40;78.30;;;;;;5033970;28;20041;-46
2022/02/17 18:29:17;;;;;;;14.90;3.47;;;9.40;78.60;;;;;;5032912;28;20167;-46
2022/02/17 18:31:44;;;;;;;16.70;3.88;;;9.40;78.90;;;;;;5033705;28;20034;-50
2022/02/17 18:34:13;;;;;;;17.02;3.22;;;9.30;79.00;;;;;;5033753;28;20419;-47
2022/02/17 18:36:40;;;;;;;18.70;4.20;;;9.30;79.30;;;;;;5033432;28;20484;-52
2022/02/17 18:39:08;;;;;;;20.42;3.88;;;9.20;79.70;;;;;;5033479;28;20388;-48
2022/02/17 18:41:38;;;;;;;22.27;3.88;;;9.20;79.80;;;;;;5033212;28;20065;-45
2022/02/17 18:44:05;;;;;;;21.25;3.80;;;9.20;79.60;;;;;;5035607;28;20546;-43
2022/02/17 18:46:33;;;;;;;18.75;4.22;;;9.20;80.00;;;;;;5033315;28;20037;-47
2022/02/17 18:49:00;;;;;;;20.48;4.03;;;9.20;79.80;;;;;;5033594;28;20041;-49
2022/02/17 18:51:27;;;;;;;17.48;3.35;;;9.20;79.80;;;;;;5032834;28;20034;-46
2022/02/17 18:53:53;;;;;;;14.70;3.50;;;9.10;79.80;;;;;;5032970;28;20072;-47
2022/02/17 18:56:20;;;;;;;27.48;6.20;;;9.10;80.10;;;;;;5033009;28;20044;-47
2022/02/17 18:58:48;;;;;;;20.42;3.35;;;9.10;80.20;;;;;;5033187;28;20046;-48
2022/02/17 19:01:15;;;;;;;24.90;4.82;;;9.10;80.20;;;;;;5032571;28;20545;-47
2022/02/17 19:03:42;;;;;;;20.55;4.28;;;9.10;80.20;;;;;;5033003;28;20045;-46
2022/02/17 19:06:09;;;;;;;18.95;3.53;;;9.10;80.50;;;;;;5032635;28;20041;-47
2022/02/17 19:08:37;;;;;;;18.65;3.50;;;9.10;80.70;;;;;;5033199;28;20065;-46
2022/02/17 19:11:04;;;;;;;24.77;4.65;;;9.10;80.90;;;;;;5033399;28;20037;-49
2022/02/17 19:13:31;;;;;;;22.08;4.25;;;9.10;80.80;;;;;;5033489;28;20107;-46
2022/02/17 19:15:58;;;;;;;20.08;4.70;;;9.10;80.80;;;;;;5033479;28;20037;-51
2022/02/17 19:18:24;;;;;;;21.85;4.05;;;9.00;81.00;;;;;;5038096;28;20373;-48
2022/02/17 19:20:51;;;;;;;17.55;3.75;;;9.10;81.00;;;;;;5033468;28;20132;-50
2022/02/17 19:23:19;;;;;;;24.45;4.63;;;9.00;81.00;;;;;;5033105;28;20045;-45
2022/02/17 19:25:45;;;;;;;23.15;4.47;;;9.00;81.50;;;;;;5036593;28;20045;-44
2022/02/17 19:28:13;;;;;;;12.80;3.85;;;9.10;81.20;;;;;;5033170;28;20049;-53
2022/02/17 19:30:40;;;;;;;22.13;4.43;;;9.10;80.90;;;;;;5031641;28;20037;-49
2022/02/17 19:33:08;;;;;;;24.80;4.35;;;9.00;81.10;;;;;;5032392;28;20049;-47
2022/02/17 19:35:35;;;;;;;17.73;4.70;;;9.00;81.20;;;;;;5032411;28;20049;-54
2022/02/17 19:38:04;;;;;;;20.85;4.50;;;9.00;81.60;;;;;;5032693;28;20045;-47
2022/02/17 19:40:30;;;;;;;19.83;3.85;;;9.00;81.50;;;;;;5032763;28;20088;-48
2022/02/17 19:42:58;;;;;;;17.30;3.15;;;9.00;81.60;;;;;;5035557;28;20099;-50
2022/02/17 19:45:25;;;;;;;22.45;4.80;;;9.00;81.50;;;;;;5032144;28;20040;-48
2022/02/17 19:47:52;;;;;;;23.23;4.60;;;9.00;82.00;;;;;;5034442;28;20480;-49
2022/02/17 19:50:18;;;;;;;22.05;4.53;;;9.10;81.80;;;;;;5032084;28;20103;-46
2022/02/17 19:52:45;;;;;;;19.60;4.72;;;9.10;82.30;;;;;;5036575;28;20037;-52
2022/02/17 19:55:12;;;;;;;19.63;4.22;;;9.00;82.40;;;;;;5032080;28;20365;-52
2022/02/17 19:57:39;;;;;;;22.60;6.53;;;9.10;83.00;;;;;;5035493;28;20409;-47
2022/02/17 20:00:06;;;;;;;19.27;4.05;;;9.10;82.60;;;;;;5032114;28;20514;-49
2022/02/17 20:02:37;;;;;;;17.27;4.93;;;9.00;82.60;;;;;;5031908;28;20050;-52
2022/02/17 20:05:04;;;;;;;15.75;3.78;;;9.10;82.70;;;;;;5035880;28;20049;-50
2022/02/17 20:07:33;;;;;;;21.85;3.80;;;9.00;82.90;;;;;;5036057;28;20117;-46
2022/02/17 20:10:00;;;;;;;19.52;3.83;;;9.00;82.90;;;;;;5036187;28;20052;-53
2022/02/17 20:12:27;;;;;;;20.33;4.35;;;9.10;83.30;;;;;;5035818;28;20041;-48
2022/02/17 20:14:54;;;;;;;17.70;4.15;;;9.10;83.60;;;;;;5038653;28;20037;-47
2022/02/17 20:17:20;;;;;;;18.35;4.32;;;9.00;83.70;;;;;;5035946;28;20092;-48
2022/02/17 20:19:47;;;;;;;22.10;4.55;;;9.00;83.80;;;;;;5036224;28;20045;-47
2022/02/17 20:22:14;;;;;;;22.88;4.20;;;9.00;84.10;;;;;;5036280;28;20045;-48
2022/02/17 20:24:41;;;;;;;20.75;3.80;;;9.00;84.30;;;;;;5036052;28;20033;-48
2022/02/17 20:27:07;;;;;;;18.33;3.80;;;9.00;84.40;;;;;;5036136;28;20091;-45
2022/02/17 20:29:35;;;;;;;15.82;4.30;;;9.00;84.60;;;;;;5035729;28;20057;-49
2022/02/17 20:32:01;;;;;;;28.30;5.93;;;9.00;84.60;;;;;;5035905;28;20041;-46
2022/02/17 20:34:28;;;;;;;21.20;4.03;;;9.00;84.90;;;;;;5035760;28;20049;-47
2022/02/17 20:36:58;;;;;;;18.13;3.80;;;9.00;84.80;;;;;;5035882;28;20041;-50
2022/02/17 20:39:27;;;;;;;22.67;4.97;;;9.00;84.80;;;;;;5036007;28;20451;-50
2022/02/17 20:41:53;;;;;;;19.75;5.00;;;9.00;84.60;;;;;;5035584;28;20053;-49
2022/02/17 20:52:40;;;;;;;23.90;4.40;;;9.10;84.70;;;;;;5035590;28;20113;-46
2022/02/17 20:55:06;;;;;;;22.50;5.05;;;9.00;84.90;;;;;;5035536;28;20037;-51
2022/02/17 20:57:34;;;;;;;20.85;4.25;;;9.00;84.90;;;;;;5035462;28;20061;-46
2022/02/17 21:00:01;;;;;;;19.83;4.18;;;9.10;85.30;;;;;;5035477;28;20088;-48
2022/02/17 21:02:28;;;;;;;21.77;4.05;;;9.10;85.10;;;;;;5035474;28;20044;-47
2022/02/17 21:04:55;;;;;;;18.85;3.90;;;9.10;85.00;;;;;;5035205;28;20038;-48
2022/02/17 21:07:22;;;;;;;17.90;3.53;;;9.10;84.40;;;;;;5039556;28;20117;-49
2022/02/17 21:09:49;;;;;;;19.92;3.90;;;9.10;84.20;;;;;;5035248;28;20092;-51
2022/02/17 21:12:44;;;;;;;21.17;4.68;;;9.10;84.60;;;;;;5035265;28;20084;-47
2022/02/17 21:15:02;;;;;;;17.00;3.85;;;9.10;84.10;;;;;;5034546;28;20038;-53
2022/02/17 21:17:29;;;;;;;20.73;4.68;;;9.10;84.10;;;;;;5038976;28;20046;-52
2022/02/17 21:19:56;;;;;;;24.63;4.85;;;9.10;84.00;;;;;;5034743;28;20041;-48
2022/02/17 21:22:23;;;;;;;16.65;4.20;;;9.10;83.80;;;;;;5038423;28;20099;-47
2022/02/17 21:24:49;;;;;;;17.88;4.68;;;9.10;84.00;;;;;;5034952;28;20049;-49
2022/02/17 21:27:17;;;;;;;23.27;5.30;;;9.10;83.20;;;;;;5037350;28;20037;-52
2022/02/17 21:29:44;;;;;;;31.65;11.02;;;9.00;83.30;;;;;;5032784;28;20518;-52
2022/02/17 21:32:11;;;;;;;19.08;6.65;;;9.10;83.20;;;;;;5032706;28;20029;-48
2022/02/17 21:34:38;;;;;;;24.27;5.45;;;9.10;83.20;;;;;;5032985;28;20046;-50
2022/02/17 21:37:04;;;;;;;24.35;7.00;;;9.10;83.60;;;;;;5035542;28;20491;-46
2022/02/17 21:39:31;;;;;;;17.15;4.53;;;9.10;82.90;;;;;;5032555;28;20045;-48
2022/02/17 21:41:58;;;;;;;18.67;5.20;;;9.10;82.40;;;;;;5034823;28;20057;-48
2022/02/17 21:44:25;;;;;;;20.10;5.82;;;9.10;82.80;;;;;;5034628;28;20064;-52
2022/02/17 21:46:51;;;;;;;18.92;4.55;;;9.10;82.10;;;;;;5032670;28;20042;-48
2022/02/17 21:49:18;;;;;;;19.30;5.13;;;9.00;81.90;;;;;;5034473;28;20037;-46
2022/02/17 21:51:46;;;;;;;16.05;4.18;;;9.00;81.70;;;;;;5031218;28;20699;-46
2022/02/17 21:54:13;;;;;;;17.08;5.45;;;9.00;81.90;;;;;;5032859;28;20045;-48
2022/02/17 21:56:40;;;;;;;18.05;4.63;;;9.00;81.40;;;;;;5034131;28;20041;-46
2022/02/17 21:59:07;;;;;;;15.60;4.68;;;9.00;81.80;;;;;;5034065;28;20045;-49
2022/02/17 22:01:34;;;;;;;25.42;4.82;;;9.00;82.30;;;;;;5030804;28;20194;-51
2022/02/17 22:04:01;;;;;;;20.55;5.68;;;8.90;82.40;;;;;;5030342;28;20041;-52
2022/02/17 22:06:28;;;;;;;19.70;4.88;;;8.90;82.90;;;;;;5029145;28;20080;-48
2022/02/17 22:08:57;;;;;;;18.70;4.75;;;8.90;83.20;;;;;;5035660;28;20095;-47
2022/02/17 22:11:24;;;;;;;19.98;5.75;;;8.90;83.70;;;;;;5033988;28;20125;-44
2022/02/17 22:13:51;;;;;;;17.27;5.32;;;8.90;84.30;;;;;;5033948;28;20041;-48
2022/02/17 22:16:18;;;;;;;22.13;5.00;;;8.80;84.70;;;;;;5033869;28;20038;-44
2022/02/17 22:18:45;;;;;;;23.08;6.07;;;8.80;85.30;;;;;;5033640;28;20122;-47
2022/02/17 22:21:12;;;;;;;27.50;5.47;;;8.80;86.00;;;;;;5033540;28;20064;-46
2022/02/17 22:23:42;;;;;;;24.75;4.85;;;8.80;86.30;;;;;;5033505;28;20041;-47
2022/02/17 22:26:08;;;;;;;34.10;5.82;;;8.80;86.80;;;;;;5032989;28;20441;-49
2022/02/17 22:28:36;;;;;;;29.48;6.75;;;8.80;87.40;;;;;;5033492;28;20506;-49
2022/02/17 22:31:04;;;;;;;27.02;6.90;;;8.80;87.70;;;;;;5036387;28;20090;-48
2022/02/17 22:33:30;;;;;;;31.73;6.45;;;8.80;88.20;;;;;;5033885;28;20052;-47
2022/02/17 22:35:57;;;;;;;28.52;5.68;;;8.80;88.70;;;;;;5033574;28;20069;-46
2022/02/17 22:38:24;;;;;;;29.65;6.78;;;8.80;88.80;;;;;;5033323;28;20048;-48
2022/02/17 22:40:50;;;;;;;30.63;6.50;;;8.80;89.20;;;;;;5033417;28;20483;-46
2022/02/17 22:43:18;;;;;;;31.83;7.47;;;8.80;89.50;;;;;;5027135;28;20065;-50
2022/02/17 22:45:45;;;;;;;35.08;8.32;;;8.90;89.80;;;;;;5028447;28;20069;-49
2022/02/17 22:48:12;;;;;;;36.88;7.13;;;8.90;90.10;;;;;;5033217;28;20376;-52
2022/02/17 22:50:39;;;;;;;27.42;7.47;;;8.90;90.30;;;;;;5033241;28;20491;-49
2022/02/17 22:53:06;;;;;;;29.05;6.35;;;8.90;90.40;;;;;;5033433;28;20484;-46
2022/02/17 22:55:33;;;;;;;28.60;5.30;;;8.90;90.50;;;;;;5033248;28;20068;-46
2022/02/17 22:58:00;;;;;;;29.13;7.35;;;8.90;90.60;;;;;;5037193;28;20135;-49
2022/02/17 23:00:27;;;;;;;31.73;7.22;;;8.90;90.60;;;;;;5033742;28;20538;-49
2022/02/17 23:02:54;;;;;;;34.63;7.15;;;8.90;90.70;;;;;;5033223;28;20041;-48
2022/02/17 23:05:20;;;;;;;37.17;6.85;;;8.90;90.70;;;;;;5033252;28;20037;-51
2022/02/17 23:10:48;;;;;;;32.35;6.43;;;8.90;90.80;;;;;;5032944;28;20488;-50
2022/02/17 23:13:15;;;;;;;30.25;6.15;;;8.90;90.80;;;;;;5034018;28;20046;-45
